Terminal Aerodrome Forecast
Issued by NWS Wakefield, VA

Home | Current Version | Previous Version | Text Only | Print | Product List | Glossary On
Versions: 1 2 3 4 5 6 7 8 9 10 11 12 13 14 15 16 17 18 19 20 21 22 23
000
FTUS41 KAKQ 291726
TAFSBY
TAF
KSBY 291726Z 2918/3018 24012G19KT P6SM FEW050 BKN250
     FM300000 21009KT P6SM VCSH SCT050 BKN100
     FM300400 19004KT P6SM SCT100
     FM300800 13004KT P6SM SCT035
     FM301000 10004KT 2SM BR BKN025
     FM301400 09004KT P6SM FEW025=

USA.gov is the U.S. government's official web portal to all federal, state and local government web resources and services.